Trade Lake, Wisconsin
Current Conditions -  °F | °C
As of 1:15 PM on Thursday 30 Oct 2014 (Local Time) from KRZN Reporting Station
Overcast Overcast  
Wind Chill:   Ceiling: 2900
Heat Index:   Visibility: 10mi
Dew Point:   Wind: 6mph
Humidity: 75%   Direction: 330°NNW
Pressure: 30.1"   Gusts: NA
Location:  45.6678°N, 92.363°W
Report Text: KRZN 301815Z AUTO 33005KT 10SM BKN029 OVC040 05/01 A3010 RMK AO2 T00480007
Loading
Personal Weather Stations






























Interactive Weather Map
Tropical Storm Tracking
New forecast layout! Learn more

10-Day Weather Forecast

Advertisements
Track Severe Weather on mobile